Time;durP1;ratioP1;P1;durP2;ratioP2;P2;SDS_P1;SDS_P2;PMS_P1;PMS_P2;Temp;Humidity;BMP_temperature;BMP_pressure;BME280_temperature;BME280_humidity;BME280_pressure;Samples;Min_cycle;Max_cycle;Signal;HPM_P1;HPM_P2
2023/01/12 00:02:07;;;;;;;12.73;2.20;;;8.10;99.90;;;;;;5036427;28;20059;-80
2023/01/12 00:04:33;;;;;;;6.33;1.73;;;8.10;99.90;;;;;;5052822;28;20017;-80
2023/01/12 00:06:59;;;;;;;5.67;1.87;;;8.10;99.90;;;;;;5052919;28;20025;-78
2023/01/12 00:09:26;;;;;;;13.13;2.40;;;8.10;99.90;;;;;;5053044;28;20469;-80
2023/01/12 00:11:51;;;;;;;8.87;2.77;;;8.10;99.90;;;;;;5052238;28;20017;-79
2023/01/12 00:14:22;;;;;;;7.83;2.00;;;8.10;99.90;;;;;;5036698;28;20090;-80
2023/01/12 00:16:47;;;;;;;8.83;2.23;;;8.10;99.90;;;;;;5037697;28;20036;-82
2023/01/12 00:19:18;;;;;;;8.77;2.77;;;8.10;99.90;;;;;;5055093;28;20033;-81
2023/01/12 00:24:30;;;;;;;14.50;2.90;;;8.20;99.90;;;;;;5068294;28;20025;-82
2023/01/12 00:27:00;;;;;;;13.67;3.60;;;8.20;99.90;;;;;;5054844;28;20045;-82
2023/01/12 00:29:29;;;;;;;16.63;4.03;;;8.20;99.90;;;;;;5037358;28;20029;-81
2023/01/12 00:31:56;;;;;;;15.37;3.70;;;8.10;99.90;;;;;;5052572;28;20083;-81
2023/01/12 00:34:22;;;;;;;12.93;3.83;;;8.20;99.90;;;;;;5052756;28;20116;-80
2023/01/12 00:36:48;;;;;;;16.37;4.40;;;8.20;99.90;;;;;;5052569;28;20414;-79
2023/01/12 00:39:14;;;;;;;18.47;4.33;;;8.30;99.90;;;;;;5052296;28;20155;-80
2023/01/12 00:47:09;;;;;;;;;;;8.40;99.90;;;;;;5054259;28;20043;-81
2023/01/12 00:49:36;;;;;;;17.57;4.90;;;8.30;99.90;;;;;;5052406;28;19991;-80
2023/01/12 00:52:03;;;;;;;18.40;4.83;;;8.30;99.90;;;;;;5052033;28;20025;-82
2023/01/12 00:54:28;;;;;;;17.43;4.37;;;8.30;99.90;;;;;;5051931;28;20085;-81
2023/01/12 00:56:54;;;;;;;21.87;5.33;;;8.30;99.90;;;;;;5035458;28;20033;-81
2023/01/12 00:59:20;;;;;;;15.00;5.40;;;8.30;99.90;;;;;;5035477;28;20059;-81
2023/01/12 01:01:45;;;;;;;15.70;5.53;;;8.30;99.90;;;;;;5035327;28;20029;-81
2023/01/12 01:04:11;;;;;;;21.70;5.40;;;8.30;99.90;;;;;;5051904;28;20385;-80
2023/01/12 01:06:37;;;;;;;26.23;6.67;;;8.40;99.90;;;;;;5051905;28;20036;-82
2023/01/12 01:09:04;;;;;;;20.53;5.37;;;8.40;99.90;;;;;;5035264;28;20025;-81
2023/01/12 01:11:30;;;;;;;25.83;6.20;;;8.40;99.90;;;;;;5051835;28;20031;-80
2023/01/12 01:13:56;;;;;;;29.60;8.40;;;8.30;99.90;;;;;;5053122;28;20469;-80
2023/01/12 01:16:21;;;;;;;24.50;6.80;;;8.40;99.90;;;;;;5035238;28;20028;-81
2023/01/12 01:18:47;;;;;;;26.70;7.70;;;8.40;99.90;;;;;;5035166;28;20136;-83
2023/01/12 01:21:13;;;;;;;30.50;7.63;;;8.40;99.90;;;;;;5051887;28;20052;-80
2023/01/12 01:23:40;;;;;;;24.53;7.70;;;8.40;99.90;;;;;;5040630;28;20037;-81
2023/01/12 01:26:12;;;;;;;25.87;7.37;;;8.50;99.90;;;;;;5041933;28;20067;-80
2023/01/12 01:28:40;;;;;;;26.33;8.37;;;8.40;99.90;;;;;;5059757;28;20470;-85
2023/01/12 01:31:09;;;;;;;26.97;7.40;;;8.50;99.90;;;;;;5058225;28;20025;-83
2023/01/12 01:33:35;;;;;;;23.37;7.30;;;8.50;99.90;;;;;;5058384;28;20087;-84
2023/01/12 01:36:00;;;;;;;28.93;7.57;;;8.50;99.90;;;;;;5058211;28;20032;-84
2023/01/12 01:38:26;;;;;;;25.40;7.07;;;8.50;99.90;;;;;;5058309;28;20068;-85
2023/01/12 01:40:53;;;;;;;29.27;7.13;;;8.40;99.90;;;;;;5041663;28;20037;-84
2023/01/12 01:43:21;;;;;;;25.87;5.87;;;8.60;99.90;;;;;;5058269;28;20039;-83
2023/01/12 01:45:57;;;;;;;26.60;7.40;;;8.60;99.90;;;;;;5058367;28;20102;-82
2023/01/12 01:48:23;;;;;;;19.70;6.10;;;8.50;99.90;;;;;;5058221;28;20121;-81
2023/01/12 01:51:05;;;;;;;25.37;6.73;;;8.50;99.90;;;;;;5058241;28;20047;-80
2023/01/12 01:53:34;;;;;;;22.50;6.20;;;8.60;99.90;;;;;;5057805;28;20139;-79
2023/01/12 01:56:09;;;;;;;31.87;7.73;;;8.60;99.90;;;;;;5057952;28;20033;-80
2023/01/12 01:58:39;;;;;;;27.70;7.00;;;8.60;99.90;;;;;;5058175;28;20029;-80
2023/01/12 02:01:06;;;;;;;30.80;6.10;;;8.60;99.90;;;;;;5057966;28;20032;-80
2023/01/12 02:03:33;;;;;;;25.60;6.60;;;8.60;99.90;;;;;;5057974;28;20036;-80
2023/01/12 02:05:59;;;;;;;14.57;4.97;;;8.60;99.90;;;;;;5058020;28;20021;-80
2023/01/12 02:08:34;;;;;;;20.47;5.27;;;8.60;99.90;;;;;;5058012;28;20024;-80
2023/01/12 02:11:00;;;;;;;20.00;5.57;;;8.60;99.90;;;;;;5057924;28;20040;-80
2023/01/12 02:16:22;;;;;;;20.00;5.13;;;8.70;99.90;;;;;;5059493;28;20047;-82
2023/01/12 02:19:25;;;;;;;24.73;5.72;;;8.60;99.90;;;;;;5057973;28;20021;-80
2023/01/12 02:22:27;;;;;;;19.90;5.37;;;8.60;99.90;;;;;;5058298;28;20036;-80
2023/01/12 02:25:29;;;;;;;20.20;5.80;;;8.70;99.90;;;;;;5057717;28;20032;-80
2023/01/12 02:28:10;;;;;;;20.70;5.87;;;8.60;99.90;;;;;;5058067;28;20029;-85
2023/01/12 02:30:57;;;;;;;21.33;5.40;;;8.60;99.90;;;;;;5058110;28;20032;-84
2023/01/12 02:33:50;;;;;;;17.83;5.90;;;8.60;99.90;;;;;;5057757;28;20045;-83
2023/01/12 02:36:24;;;;;;;18.87;4.80;;;8.60;99.90;;;;;;5054812;28;20033;-81
2023/01/12 02:39:00;;;;;;;19.20;5.82;;;8.60;99.90;;;;;;5056078;28;20048;-84
2023/01/12 02:44:35;;;;;;;20.10;5.15;;;8.60;99.90;;;;;;5055985;28;20032;-82
2023/01/12 02:47:04;;;;;;;19.67;4.77;;;8.60;99.90;;;;;;5054255;28;20112;-84
2023/01/12 02:49:36;;;;;;;23.90;4.80;;;8.60;99.90;;;;;;5054381;28;20025;-84
2023/01/12 02:52:11;;;;;;;21.10;4.20;;;8.60;99.90;;;;;;5054390;28;20405;-82
2023/01/12 02:54:39;;;;;;;21.83;5.03;;;8.60;99.90;;;;;;5055723;28;20035;-83
2023/01/12 02:57:07;;;;;;;19.80;4.43;;;8.60;99.90;;;;;;5054384;28;20033;-83
2023/01/12 02:59:37;;;;;;;23.73;3.90;;;8.60;99.90;;;;;;5055388;28;20063;-82
2023/01/12 03:02:17;;;;;;;19.53;3.53;;;8.60;99.90;;;;;;5055792;28;20033;-83
2023/01/12 03:04:45;;;;;;;13.60;4.10;;;8.60;99.90;;;;;;5054343;28;20024;-82
2023/01/12 03:07:14;;;;;;;23.50;4.23;;;8.60;99.90;;;;;;5037858;28;20029;-82
2023/01/12 03:09:50;;;;;;;16.53;4.23;;;8.60;99.90;;;;;;5053869;28;20032;-83
2023/01/12 03:12:29;;;;;;;22.17;4.80;;;8.50;99.90;;;;;;5055235;28;20048;-85
2023/01/12 03:14:57;;;;;;;23.43;5.33;;;8.60;99.90;;;;;;5054267;28;20473;-82
2023/01/12 03:17:42;;;;;;;16.17;5.20;;;8.60;99.90;;;;;;5053923;28;20120;-84
2023/01/12 03:20:35;;;;;;;23.97;5.57;;;8.60;99.90;;;;;;5055143;28;20021;-84
2023/01/12 03:23:07;;;;;;;28.00;5.53;;;8.60;99.90;;;;;;5051480;28;20039;-82
2023/01/12 03:25:36;;;;;;;25.23;5.30;;;8.60;99.90;;;;;;5053593;28;20041;-82
2023/01/12 03:28:04;;;;;;;26.47;5.33;;;8.60;99.90;;;;;;5037161;28;20396;-89
2023/01/12 03:30:44;;;;;;;15.87;6.00;;;8.60;99.90;;;;;;5054800;28;20104;-83
2023/01/12 03:33:11;;;;;;;29.13;6.80;;;8.60;99.90;;;;;;5053994;28;20063;-82
2023/01/12 03:36:08;;;;;;;30.43;7.30;;;8.60;99.90;;;;;;5037075;28;20040;-83
2023/01/12 03:38:53;;;;;;;22.80;5.20;;;8.50;99.90;;;;;;5052949;28;20041;-83
2023/01/12 03:41:39;;;;;;;21.05;4.50;;;8.60;99.90;;;;;;5053499;28;20029;-82
2023/01/12 03:44:12;;;;;;;22.57;4.57;;;8.60;99.90;;;;;;5053698;28;20307;-82
2023/01/12 03:46:43;;;;;;;18.80;4.72;;;8.60;99.90;;;;;;5052421;28;20112;-84
2023/01/12 03:49:46;;;;;;;18.23;4.50;;;8.60;99.90;;;;;;5053679;28;20017;-82
2023/01/12 03:52:15;;;;;;;25.20;4.37;;;8.60;99.90;;;;;;5035885;28;20017;-81
2023/01/12 03:54:43;;;;;;;17.00;3.93;;;8.60;99.90;;;;;;5049885;28;20037;-81
2023/01/12 03:57:10;;;;;;;18.77;3.80;;;8.60;99.90;;;;;;5053579;28;20021;-82
2023/01/12 03:59:36;;;;;;;15.20;3.50;;;8.60;99.90;;;;;;5053437;28;20021;-82
2023/01/12 04:02:02;;;;;;;21.83;3.73;;;8.50;99.90;;;;;;5036443;28;20025;-82
2023/01/12 04:04:28;;;;;;;20.27;3.73;;;8.50;99.90;;;;;;5052950;28;20381;-86
2023/01/12 04:07:03;;;;;;;20.47;3.47;;;8.60;99.90;;;;;;5036421;28;20018;-84
2023/01/12 04:09:29;;;;;;;24.33;3.83;;;8.60;99.90;;;;;;5052955;28;20017;-89
2023/01/12 04:12:09;;;;;;;23.20;3.57;;;8.50;99.90;;;;;;5054263;28;20104;-82
2023/01/12 04:14:40;;;;;;;16.70;3.77;;;8.50;99.90;;;;;;5054379;28;20036;-82
2023/01/12 04:17:07;;;;;;;16.63;2.87;;;8.50;99.90;;;;;;5053297;28;20473;-82
2023/01/12 04:19:32;;;;;;;14.60;3.17;;;8.50;99.90;;;;;;5052816;28;20029;-82
2023/01/12 04:24:43;;;;;;;23.63;3.47;;;8.50;99.90;;;;;;5053242;28;20385;-81
2023/01/12 04:27:08;;;;;;;14.57;2.97;;;8.50;99.90;;;;;;5035794;28;20037;-81
2023/01/12 04:29:37;;;;;;;16.70;2.97;;;8.50;99.90;;;;;;5035965;28;20079;-85
2023/01/12 04:32:03;;;;;;;13.53;2.83;;;8.50;99.90;;;;;;5052927;28;20345;-81
2023/01/12 04:34:29;;;;;;;14.77;3.03;;;8.50;99.90;;;;;;5035874;28;20107;-83
2023/01/12 04:36:55;;;;;;;13.20;2.93;;;8.50;99.90;;;;;;5052509;28;20055;-79
2023/01/12 04:39:21;;;;;;;16.33;3.13;;;8.50;99.90;;;;;;5035833;28;20373;-79
2023/01/12 04:41:46;;;;;;;18.13;3.07;;;8.50;99.90;;;;;;5053488;28;20029;-80
2023/01/12 04:44:12;;;;;;;15.87;2.73;;;8.40;99.90;;;;;;5035698;28;20075;-79
2023/01/12 04:46:38;;;;;;;14.17;3.03;;;8.50;99.90;;;;;;5035804;28;20049;-81
2023/01/12 04:49:03;;;;;;;12.50;2.67;;;8.50;99.90;;;;;;5035710;28;20028;-80
2023/01/12 04:51:29;;;;;;;26.90;4.00;;;8.40;99.90;;;;;;5035600;28;20082;-81
2023/01/12 04:53:55;;;;;;;20.13;3.30;;;8.40;99.90;;;;;;5053389;28;20429;-80
2023/01/12 04:56:20;;;;;;;15.87;3.73;;;8.50;99.90;;;;;;5035431;28;20401;-80
2023/01/12 04:58:46;;;;;;;12.17;2.63;;;8.40;99.90;;;;;;5035129;28;20394;-80
2023/01/12 05:01:15;;;;;;;14.83;2.93;;;8.50;99.90;;;;;;5035346;28;20033;-82
2023/01/12 05:03:41;;;;;;;21.50;3.67;;;8.50;99.90;;;;;;5053516;28;20154;-79
2023/01/12 05:06:07;;;;;;;15.47;2.93;;;8.40;99.90;;;;;;5053273;28;20096;-82
2023/01/12 05:11:16;;;;;;;16.73;3.45;;;8.50;99.90;;;;;;5053504;28;20048;-83
2023/01/12 05:13:44;;;;;;;11.87;2.70;;;8.50;99.90;;;;;;5051954;28;20477;-84
2023/01/12 05:16:15;;;;;;;16.87;3.07;;;8.50;99.90;;;;;;5035220;28;20477;-81
2023/01/12 05:18:43;;;;;;;18.07;3.83;;;8.50;99.90;;;;;;5053101;28;20380;-79
2023/01/12 05:21:09;;;;;;;16.03;2.80;;;8.50;99.90;;;;;;5051525;28;20021;-81
2023/01/12 05:23:35;;;;;;;11.77;2.63;;;8.50;99.90;;;;;;5053000;28;20021;-79
2023/01/12 05:26:02;;;;;;;13.33;3.47;;;8.50;99.90;;;;;;5055659;28;20132;-78
2023/01/12 05:28:29;;;;;;;11.87;2.40;;;8.60;99.90;;;;;;5041772;28;20061;-80
2023/01/12 05:31:01;;;;;;;16.73;2.20;;;8.60;99.90;;;;;;5064545;28;20017;-80
2023/01/12 05:33:27;;;;;;;14.30;2.53;;;8.60;99.90;;;;;;5058570;28;20053;-79
2023/01/12 05:35:52;;;;;;;14.07;2.87;;;8.60;99.90;;;;;;5035062;28;20056;-80
2023/01/12 05:38:18;;;;;;;10.60;1.87;;;8.60;99.90;;;;;;5050970;28;20052;-80
2023/01/12 05:40:44;;;;;;;9.17;1.80;;;8.60;99.90;;;;;;5033732;28;20140;-79
2023/01/12 05:45:56;;;;;;;13.13;2.27;;;8.60;99.90;;;;;;5052411;28;20031;-79
2023/01/12 05:48:21;;;;;;;14.60;2.17;;;8.60;99.90;;;;;;5051579;28;20025;-79
2023/01/12 05:50:47;;;;;;;13.97;2.50;;;8.60;99.90;;;;;;5034859;28;20025;-80
2023/01/12 05:53:13;;;;;;;10.40;2.17;;;8.60;99.90;;;;;;5034867;28;20021;-79
2023/01/12 05:55:38;;;;;;;10.30;2.27;;;8.60;99.90;;;;;;5051549;28;20082;-82
2023/01/12 05:58:04;;;;;;;12.47;2.47;;;8.70;99.90;;;;;;5035065;28;20473;-79
2023/01/12 06:00:30;;;;;;;8.90;2.10;;;8.60;99.90;;;;;;5051580;28;20032;-79
2023/01/12 06:02:55;;;;;;;10.13;2.23;;;8.60;99.90;;;;;;5052760;28;20032;-79
2023/01/12 06:05:21;;;;;;;13.37;2.10;;;8.60;99.90;;;;;;5051577;28;20098;-78
2023/01/12 06:07:47;;;;;;;11.03;2.03;;;8.60;99.90;;;;;;5034886;28;20362;-80
2023/01/12 06:10:12;;;;;;;19.60;2.30;;;8.60;99.90;;;;;;5053729;28;20112;-78
2023/01/12 06:15:22;;;;;;;12.70;2.17;;;8.70;99.90;;;;;;5055809;28;20607;-81
2023/01/12 06:17:47;;;;;;;7.27;1.43;;;8.70;99.90;;;;;;5038444;28;20119;-78
2023/01/12 06:20:15;;;;;;;9.63;1.70;;;8.70;99.90;;;;;;5038403;28;20029;-81
2023/01/12 06:22:42;;;;;;;9.00;1.70;;;8.70;99.90;;;;;;5056095;28;20067;-82
2023/01/12 06:25:08;;;;;;;11.83;1.83;;;8.60;99.90;;;;;;5054826;28;20447;-82
2023/01/12 06:27:37;;;;;;;6.27;1.40;;;8.70;99.90;;;;;;5038207;28;20070;-82
2023/01/12 06:30:06;;;;;;;10.57;1.63;;;8.70;99.90;;;;;;5038467;28;20025;-81
2023/01/12 06:32:32;;;;;;;9.30;2.23;;;8.80;99.90;;;;;;5037886;28;20059;-81
2023/01/12 06:34:58;;;;;;;9.03;2.00;;;8.70;99.90;;;;;;5054853;28;20087;-81
2023/01/12 06:37:24;;;;;;;7.37;1.53;;;8.80;99.90;;;;;;5037930;28;20187;-82
2023/01/12 06:39:50;;;;;;;9.57;1.47;;;8.80;99.90;;;;;;5038179;28;20124;-81
2023/01/12 06:42:27;;;;;;;6.03;1.40;;;8.80;99.90;;;;;;5054692;28;20120;-82
2023/01/12 06:44:54;;;;;;;6.47;1.60;;;8.80;99.90;;;;;;5054608;28;20810;-81
2023/01/12 06:47:20;;;;;;;6.87;1.67;;;8.90;99.90;;;;;;5037452;28;20033;-82
2023/01/12 06:49:46;;;;;;;9.17;2.00;;;8.80;99.90;;;;;;5054778;28;20017;-83
2023/01/12 06:52:12;;;;;;;6.27;1.53;;;8.80;99.90;;;;;;5054541;28;20492;-81
2023/01/12 06:54:38;;;;;;;8.23;1.73;;;8.90;99.90;;;;;;5054790;28;20040;-83
2023/01/12 06:57:03;;;;;;;14.00;2.43;;;8.90;99.90;;;;;;5036755;28;20029;-81
2023/01/12 06:59:29;;;;;;;9.93;2.17;;;8.90;99.90;;;;;;5037176;28;20039;-82
2023/01/12 07:01:55;;;;;;;7.27;2.10;;;8.90;99.90;;;;;;5037062;28;20110;-82
2023/01/12 07:04:20;;;;;;;7.63;2.00;;;8.90;99.90;;;;;;5053832;28;20044;-83
2023/01/12 07:06:47;;;;;;;9.80;2.10;;;9.00;99.90;;;;;;5053104;28;20095;-83
2023/01/12 07:09:13;;;;;;;5.37;1.87;;;9.00;99.90;;;;;;5036842;28;20031;-87
2023/01/12 07:11:39;;;;;;;11.27;2.60;;;9.00;99.90;;;;;;5062808;28;20021;-81
2023/01/12 07:14:07;;;;;;;8.83;3.10;;;9.00;99.90;;;;;;5037222;28;20415;-84
2023/01/12 07:16:33;;;;;;;7.87;2.47;;;9.00;99.90;;;;;;5042541;28;20032;-81
2023/01/12 07:18:59;;;;;;;9.67;2.70;;;9.00;99.90;;;;;;5053697;28;20029;-82
2023/01/12 07:21:25;;;;;;;12.70;3.07;;;9.00;99.90;;;;;;5053182;28;20373;-82
2023/01/12 07:23:50;;;;;;;7.70;2.50;;;9.00;99.90;;;;;;5062289;28;20440;-80
2023/01/12 07:26:16;;;;;;;9.43;3.00;;;9.10;99.90;;;;;;5030305;28;20133;-85
2023/01/12 07:28:42;;;;;;;10.30;3.67;;;9.10;99.90;;;;;;5038111;28;20093;-81
2023/01/12 07:31:08;;;;;;;7.97;2.97;;;9.10;99.90;;;;;;5062961;28;20053;-81
2023/01/12 07:33:35;;;;;;;10.63;3.30;;;9.10;99.90;;;;;;5048944;28;20078;-80
2023/01/12 07:36:01;;;;;;;6.77;2.57;;;9.10;99.90;;;;;;5055656;28;20051;-85
2023/01/12 07:38:29;;;;;;;5.73;2.73;;;9.10;99.90;;;;;;5080524;28;20539;-80
2023/01/12 07:41:01;;;;;;;9.20;2.93;;;9.10;99.90;;;;;;5051856;28;20491;-80
2023/01/12 07:43:27;;;;;;;7.43;2.47;;;9.20;99.90;;;;;;5067890;28;20049;-85
2023/01/12 07:45:56;;;;;;;7.57;2.63;;;9.20;99.90;;;;;;5055189;28;20029;-81
2023/01/12 07:48:23;;;;;;;6.77;2.87;;;9.20;99.90;;;;;;5055201;28;20029;-81
2023/01/12 07:50:49;;;;;;;6.83;3.03;;;9.20;99.90;;;;;;5053871;28;20049;-82
2023/01/12 07:53:15;;;;;;;10.10;2.90;;;9.30;99.90;;;;;;5037141;28;20102;-88
2023/01/12 07:55:42;;;;;;;9.30;2.93;;;9.30;99.90;;;;;;5053351;28;20078;-80
2023/01/12 07:58:08;;;;;;;10.07;2.53;;;9.30;99.90;;;;;;5037085;28;20051;-81
2023/01/12 08:00:35;;;;;;;7.60;2.33;;;9.30;99.90;;;;;;5036598;28;20033;-89
2023/01/12 08:03:09;;;;;;;8.43;3.00;;;9.40;99.90;;;;;;5053177;28;20119;-82
2023/01/12 08:05:37;;;;;;;7.10;2.50;;;9.30;99.90;;;;;;5054682;28;20029;-80
2023/01/12 08:08:04;;;;;;;6.20;3.00;;;9.30;99.90;;;;;;5053262;28;20040;-81
2023/01/12 08:10:29;;;;;;;8.93;3.43;;;9.40;99.90;;;;;;5053154;28;20465;-81
2023/01/12 08:12:55;;;;;;;6.10;2.83;;;9.40;99.90;;;;;;5053117;28;20033;-80
2023/01/12 08:15:23;;;;;;;6.77;3.00;;;9.40;99.90;;;;;;5053323;28;20037;-80
2023/01/12 08:17:54;;;;;;;7.20;2.80;;;9.40;99.90;;;;;;5052668;28;20031;-79
2023/01/12 08:20:26;;;;;;;6.60;2.87;;;9.40;99.90;;;;;;5053990;28;20033;-81
2023/01/12 08:22:57;;;;;;;7.77;2.73;;;9.50;99.90;;;;;;5054072;28;20029;-81
2023/01/12 08:25:31;;;;;;;10.30;3.83;;;9.40;99.90;;;;;;5053117;28;20473;-80
2023/01/12 08:27:59;;;;;;;;;;;9.50;99.90;;;;;;5086609;28;20044;-81
2023/01/12 08:30:26;;;;;;;9.87;3.37;;;9.50;99.90;;;;;;5086414;28;19915;-81
2023/01/12 08:32:51;;;;;;;8.70;3.90;;;9.50;99.90;;;;;;5035760;28;20029;-79
2023/01/12 08:35:21;;;;;;;7.57;3.43;;;9.50;99.90;;;;;;5069486;28;20094;-78
2023/01/12 08:37:49;;;;;;;10.37;4.87;;;9.50;99.90;;;;;;5086183;28;20094;-79
2023/01/12 08:40:16;;;;;;;12.87;5.20;;;9.50;99.90;;;;;;5069180;28;20536;-80
2023/01/12 08:42:42;;;;;;;13.23;4.43;;;9.50;99.90;;;;;;5052818;28;20025;-80
2023/01/12 08:45:09;;;;;;;10.00;4.20;;;9.50;99.90;;;;;;5052683;28;20384;-81
2023/01/12 08:47:36;;;;;;;12.07;4.17;;;9.60;99.90;;;;;;5052614;28;20075;-81
2023/01/12 08:50:03;;;;;;;9.77;3.90;;;9.60;99.90;;;;;;5069297;28;20021;-80
2023/01/12 08:52:28;;;;;;;9.70;4.10;;;9.60;99.90;;;;;;5066408;28;20013;-80
2023/01/12 08:54:55;;;;;;;11.83;4.70;;;9.60;99.90;;;;;;5032572;28;20083;-80
2023/01/12 08:57:21;;;;;;;7.40;4.20;;;9.60;99.90;;;;;;5033724;28;20119;-80
2023/01/12 08:59:46;;;;;;;9.77;4.37;;;9.60;99.90;;;;;;5016093;28;20497;-86
2023/01/12 09:02:13;;;;;;;8.43;4.00;;;9.70;99.90;;;;;;5032216;28;20026;-77
2023/01/12 09:04:39;;;;;;;7.80;3.70;;;9.70;99.90;;;;;;5015999;28;20029;-77
2023/01/12 09:07:06;;;;;;;9.43;4.37;;;9.70;99.90;;;;;;5032136;28;20085;-80
2023/01/12 09:09:32;;;;;;;10.57;5.27;;;9.70;99.90;;;;;;5032126;28;20025;-79
2023/01/12 09:11:58;;;;;;;9.47;4.60;;;9.70;99.90;;;;;;5015954;28;20033;-79
2023/01/12 09:14:26;;;;;;;9.43;5.10;;;9.80;99.90;;;;;;5015665;28;20033;-79
2023/01/12 09:16:52;;;;;;;10.60;5.20;;;9.80;99.90;;;;;;5032366;28;20029;-82
2023/01/12 09:19:18;;;;;;;12.37;5.63;;;9.80;99.90;;;;;;5015575;28;20036;-80
2023/01/12 09:21:43;;;;;;;11.73;6.00;;;9.80;99.90;;;;;;5032200;28;20091;-78
2023/01/12 09:24:10;;;;;;;10.27;5.80;;;9.80;99.90;;;;;;5032028;28;20022;-80
2023/01/12 09:26:39;;;;;;;14.23;5.70;;;9.80;99.90;;;;;;5031929;28;20049;-78
2023/01/12 09:29:06;;;;;;;10.70;5.70;;;9.80;99.90;;;;;;5033248;28;20022;-81
2023/01/12 09:31:34;;;;;;;9.73;5.10;;;9.80;99.90;;;;;;5015686;28;20025;-78
2023/01/12 09:34:00;;;;;;;13.87;5.60;;;9.80;99.90;;;;;;5033472;28;20025;-79
2023/01/12 09:36:28;;;;;;;9.43;5.00;;;9.90;99.90;;;;;;5033097;28;20029;-79
2023/01/12 09:38:54;;;;;;;10.20;5.43;;;9.90;99.90;;;;;;5032136;28;20025;-79
2023/01/12 09:47:26;;;;;;;12.00;6.70;;;9.90;99.90;;;;;;5037367;28;20072;-79
2023/01/12 09:50:22;;;;;;;9.00;5.43;;;10.00;99.90;;;;;;5069170;28;20022;-79
2023/01/12 09:52:57;;;;;;;13.07;6.73;;;10.00;99.90;;;;;;5035876;28;20034;-80
2023/01/12 09:55:35;;;;;;;10.60;5.90;;;10.00;99.90;;;;;;5035834;28;20351;-78
2023/01/12 09:58:48;;;;;;;12.17;5.80;;;10.00;99.90;;;;;;5035727;28;20013;-78
2023/01/12 10:01:16;;;;;;;11.63;5.90;;;10.10;99.90;;;;;;5017996;28;20056;-78
2023/01/12 10:03:42;;;;;;;12.90;4.97;;;10.10;99.90;;;;;;5035583;28;20430;-81
2023/01/12 10:06:14;;;;;;;9.60;5.70;;;10.10;99.90;;;;;;5019246;28;20117;-79
2023/01/12 10:08:42;;;;;;;11.70;5.90;;;10.10;99.90;;;;;;5036959;28;20096;-79
2023/01/12 10:11:20;;;;;;;9.53;4.87;;;10.10;99.90;;;;;;5068671;28;20116;-79
2023/01/12 10:13:48;;;;;;;8.10;4.30;;;10.20;99.90;;;;;;5068805;28;20025;-80
2023/01/12 10:16:37;;;;;;;9.30;4.90;;;10.20;99.90;;;;;;5068483;28;20025;-83
2023/01/12 10:19:16;;;;;;;10.60;4.63;;;10.20;99.90;;;;;;5036464;28;20536;-81
2023/01/12 10:21:42;;;;;;;7.63;4.10;;;10.20;99.90;;;;;;5035020;28;20541;-80
2023/01/12 10:24:12;;;;;;;8.83;4.17;;;10.20;99.90;;;;;;5035242;28;20120;-79
2023/01/12 10:26:42;;;;;;;7.40;3.67;;;10.20;99.90;;;;;;5018512;28;20076;-79
2023/01/12 10:29:10;;;;;;;8.37;3.70;;;10.30;99.90;;;;;;5036462;28;20382;-79
2023/01/12 10:31:35;;;;;;;7.53;3.13;;;10.20;99.90;;;;;;5034997;28;20108;-81
2023/01/12 10:34:10;;;;;;;5.43;2.57;;;10.30;99.90;;;;;;5035038;28;20112;-81
2023/01/12 10:36:41;;;;;;;6.57;2.67;;;10.30;99.90;;;;;;5034725;28;20020;-80
2023/01/12 10:39:32;;;;;;;7.90;2.70;;;10.30;99.90;;;;;;5035019;28;20022;-79
2023/01/12 10:45:21;;;;;;;5.13;2.50;;;10.30;99.90;;;;;;5036115;28;20037;-80
2023/01/12 10:47:49;;;;;;;6.10;2.40;;;10.30;99.90;;;;;;5035888;28;20477;-81
2023/01/12 10:50:25;;;;;;;4.13;1.97;;;10.30;99.90;;;;;;5051427;28;20112;-81
2023/01/12 10:53:00;;;;;;;6.33;2.60;;;10.30;99.90;;;;;;5053650;28;20025;-81
2023/01/12 10:55:30;;;;;;;6.63;2.30;;;10.30;99.90;;;;;;5087249;28;20025;-80
2023/01/12 10:57:57;;;;;;;6.33;2.50;;;10.30;99.90;;;;;;5088698;28;20411;-83
2023/01/12 11:00:25;;;;;;;6.13;2.93;;;10.40;99.90;;;;;;5054782;28;20021;-81
2023/01/12 11:02:51;;;;;;;6.80;2.70;;;10.40;99.90;;;;;;5054921;28;20055;-81
2023/01/12 11:05:37;;;;;;;3.87;2.00;;;10.40;99.90;;;;;;5021264;28;20115;-82
2023/01/12 11:08:24;;;;;;;5.10;2.67;;;10.40;99.90;;;;;;5037699;28;20484;-81
2023/01/12 11:10:50;;;;;;;5.07;2.37;;;10.50;99.90;;;;;;5054302;28;20066;-80
2023/01/12 11:13:35;;;;;;;5.37;2.87;;;10.50;99.90;;;;;;5054215;28;20025;-83
2023/01/12 11:16:23;;;;;;;5.47;2.77;;;10.50;99.90;;;;;;5038904;28;20031;-81
2023/01/12 11:19:05;;;;;;;4.90;2.60;;;10.50;99.90;;;;;;5054088;28;20014;-80
2023/01/12 11:21:35;;;;;;;6.20;3.23;;;10.50;99.90;;;;;;5055175;28;20083;-81
2023/01/12 11:24:13;;;;;;;6.77;3.27;;;10.60;99.90;;;;;;5054083;28;20021;-82
2023/01/12 11:26:51;;;;;;;4.60;2.63;;;10.50;99.90;;;;;;5053529;28;20123;-83
2023/01/12 11:29:42;;;;;;;5.20;2.87;;;10.50;99.90;;;;;;5050899;28;20053;-82
2023/01/12 11:32:34;;;;;;;6.00;3.00;;;10.60;99.90;;;;;;5051876;28;20017;-81
2023/01/12 11:35:10;;;;;;;6.20;2.53;;;10.60;99.90;;;;;;5051905;28;20036;-80
2023/01/12 11:37:39;;;;;;;5.30;2.70;;;10.60;99.90;;;;;;5054641;28;20036;-78
2023/01/12 11:40:28;;;;;;;6.43;3.10;;;10.50;99.90;;;;;;5068868;28;20477;-79
2023/01/12 11:45:53;;;;;;;5.77;3.00;;;10.60;99.90;;;;;;5035527;28;20061;-78
2023/01/12 11:48:29;;;;;;;7.97;4.00;;;10.60;99.90;;;;;;5035193;28;20152;-78
2023/01/12 11:50:56;;;;;;;4.77;2.67;;;10.60;99.90;;;;;;5034096;28;20025;-78
2023/01/12 11:53:24;;;;;;;7.37;3.70;;;10.60;99.90;;;;;;5066851;28;20036;-78
2023/01/12 11:56:17;;;;;;;8.60;4.00;;;10.60;99.90;;;;;;5034772;28;20022;-78
2023/01/12 11:59:08;;;;;;;6.83;3.33;;;10.60;99.90;;;;;;5034606;28;20033;-81
2023/01/12 12:02:00;;;;;;;8.47;4.27;;;10.60;99.90;;;;;;5033295;28;20036;-78
2023/01/12 12:04:36;;;;;;;8.43;4.47;;;10.60;99.90;;;;;;5034769;28;20521;-78
2023/01/12 12:07:23;;;;;;;6.23;3.87;;;10.60;99.90;;;;;;5032115;28;20063;-78
2023/01/12 12:10:17;;;;;;;7.73;4.40;;;10.70;99.90;;;;;;5033488;28;20063;-79
2023/01/12 12:13:15;;;;;;;6.72;3.97;;;10.70;99.90;;;;;;5033446;28;20120;-79
2023/01/12 12:16:13;;;;;;;7.83;4.40;;;10.60;99.90;;;;;;5033165;28;20037;-79
2023/01/12 12:18:41;;;;;;;7.03;3.80;;;10.60;99.90;;;;;;5032920;28;20112;-81
2023/01/12 12:21:19;;;;;;;8.27;4.53;;;10.70;99.90;;;;;;5033165;28;20096;-79
2023/01/12 12:24:12;;;;;;;7.37;4.00;;;10.60;99.90;;;;;;5032931;28;20442;-79
2023/01/12 12:26:43;;;;;;;7.13;4.30;;;10.70;99.90;;;;;;5034351;28;20394;-82
2023/01/12 12:29:27;;;;;;;6.97;4.67;;;10.60;99.90;;;;;;5066281;28;20082;-79
2023/01/12 12:32:04;;;;;;;6.67;4.00;;;10.70;99.90;;;;;;5034096;28;20068;-80
2023/01/12 12:34:49;;;;;;;6.17;3.10;;;10.60;99.90;;;;;;5033246;28;20029;-79
2023/01/12 12:37:36;;;;;;;4.80;2.57;;;10.70;99.90;;;;;;5033708;28;20029;-78
2023/01/12 12:40:17;;;;;;;5.83;2.83;;;10.70;99.90;;;;;;5038578;28;20127;-79
2023/01/12 12:46:11;;;;;;;5.20;2.37;;;10.70;99.90;;;;;;5053592;28;20381;-79
2023/01/12 12:48:58;;;;;;;4.10;2.13;;;10.70;99.90;;;;;;5076618;28;20020;-78
2023/01/12 12:51:26;;;;;;;5.17;2.47;;;10.70;99.90;;;;;;5049744;28;20039;-79
2023/01/12 12:53:53;;;;;;;4.70;2.60;;;10.70;99.90;;;;;;5068325;28;20036;-77
2023/01/12 12:56:22;;;;;;;4.77;2.40;;;10.70;99.90;;;;;;5049083;28;20454;-78
2023/01/12 12:58:50;;;;;;;4.60;1.90;;;10.70;99.90;;;;;;5050917;28;20044;-78
2023/01/12 13:01:25;;;;;;;6.87;2.60;;;10.70;99.90;;;;;;5052540;28;20021;-78
2023/01/12 13:04:06;;;;;;;5.28;2.47;;;10.70;99.90;;;;;;5053006;28;20047;-78
2023/01/12 13:06:38;;;;;;;4.60;2.00;;;10.70;99.90;;;;;;5085354;28;20158;-79
2023/01/12 13:09:26;;;;;;;3.67;1.67;;;10.60;99.90;;;;;;5051711;28;20056;-78
2023/01/12 13:11:58;;;;;;;3.23;1.47;;;10.70;99.90;;;;;;5053116;28;20388;-78
2023/01/12 13:14:26;;;;;;;3.63;1.57;;;10.70;99.90;;;;;;5051847;28;20477;-78
2023/01/12 13:16:57;;;;;;;5.03;2.10;;;10.60;99.90;;;;;;5052768;28;20091;-78
2023/01/12 13:19:39;;;;;;;3.93;1.40;;;10.60;99.90;;;;;;5051361;28;20033;-77
2023/01/12 13:22:27;;;;;;;7.27;2.70;;;10.60;99.90;;;;;;5050119;28;20032;-78
2023/01/12 13:25:23;;;;;;;6.30;3.07;;;10.60;99.90;;;;;;5048775;28;20025;-78
2023/01/12 13:28:18;;;;;;;6.47;3.77;;;10.60;99.90;;;;;;5082867;28;20045;-77
2023/01/12 13:30:52;;;;;;;8.17;4.37;;;10.60;99.90;;;;;;5051838;28;20037;-79
2023/01/12 13:33:24;;;;;;;8.82;4.72;;;10.50;99.90;;;;;;5051328;28;20025;-78
2023/01/12 13:35:50;;;;;;;9.20;4.93;;;10.50;99.90;;;;;;5051382;28;20032;-78
2023/01/12 13:38:43;;;;;;;8.47;4.27;;;10.50;99.90;;;;;;5050537;28;20025;-77
2023/01/12 13:44:25;;;;;;;7.27;3.37;;;10.50;99.90;;;;;;5033180;28;20441;-78
2023/01/12 13:46:57;;;;;;;7.13;3.83;;;10.50;99.90;;;;;;5032771;28;20073;-80
2023/01/12 13:49:32;;;;;;;6.63;3.90;;;10.50;99.90;;;;;;5031512;28;20049;-79
2023/01/12 13:52:07;;;;;;;4.67;2.70;;;10.40;99.90;;;;;;5031573;28;20021;-77
2023/01/12 13:54:33;;;;;;;6.27;3.33;;;10.40;99.90;;;;;;5031394;28;20028;-77
2023/01/12 13:57:02;;;;;;;4.53;2.60;;;10.40;99.90;;;;;;5014870;28;20032;-78